createdAt,value
2023-03-23T00:02:56.432Z,982.8
2023-03-23T00:08:15.518Z,982.8
2023-03-23T00:18:54.140Z,982.7
2023-03-23T00:24:13.312Z,982.8
2023-03-23T00:29:32.239Z,982.7
2023-03-23T00:34:51.397Z,982.8
2023-03-23T00:45:29.133Z,982.8
2023-03-23T00:50:48.530Z,982.7
2023-03-23T01:01:27.082Z,982.6
2023-03-23T01:06:46.693Z,982.5
2023-03-23T01:17:25.368Z,982.5
2023-03-23T01:22:44.529Z,982.3
2023-03-23T01:28:03.607Z,982.3
2023-03-23T01:33:22.397Z,982.2
2023-03-23T01:44:00.126Z,982.2
2023-03-23T01:49:19.288Z,981.9
2023-03-23T01:59:57.386Z,982
2023-03-23T02:10:35.678Z,981.8
2023-03-23T02:15:55.304Z,981.8
2023-03-23T02:26:33.909Z,981.7
2023-03-23T02:31:53.286Z,981.7
2023-03-23T02:42:31.281Z,981.6
2023-03-23T02:58:29.301Z,981.3
2023-03-23T03:09:07.691Z,981.3
2023-03-23T03:14:27.303Z,981.3
2023-03-23T03:25:17.090Z,981.3
2023-03-23T03:30:24.610Z,981.3
2023-03-23T03:41:03.279Z,981.2
2023-03-23T03:51:42.076Z,981.2
2023-03-23T03:57:00.784Z,981.2
2023-03-23T04:07:39.468Z,981.2
2023-03-23T04:12:58.221Z,981.2
2023-03-23T04:23:36.390Z,981.2
2023-03-23T04:34:14.685Z,981.2
2023-03-23T04:39:33.509Z,981.2
2023-03-23T04:50:12.603Z,981.2
2023-03-23T04:55:31.426Z,981.1
2023-03-23T05:06:10.203Z,981.2
2023-03-23T05:22:07.288Z,981.3
2023-03-23T05:32:45.610Z,981.4
2023-03-23T05:38:04.428Z,981.4
2023-03-23T05:48:42.730Z,981.4
2023-03-23T06:04:39.807Z,981.6
2023-03-23T06:09:58.901Z,981.6
2023-03-23T06:15:17.648Z,981.7
2023-03-23T06:25:56.309Z,981.8
2023-03-23T06:41:53.800Z,981.9
2023-03-23T06:52:32.486Z,982
2023-03-23T06:57:51.891Z,982
2023-03-23T07:08:30.151Z,982.2
2023-03-23T07:13:49.017Z,982.3
2023-03-23T07:24:28.461Z,982.4
2023-03-23T07:35:07.341Z,982.4
2023-03-23T07:40:25.964Z,982.3
2023-03-23T07:51:04.486Z,982.5
2023-03-23T07:56:23.278Z,982.5
2023-03-23T08:07:02.035Z,982.6
2023-03-23T08:12:21.436Z,982.6
2023-03-23T08:22:59.466Z,982.8
2023-03-23T08:33:38.182Z,982.9
2023-03-23T08:38:57.053Z,982.8
2023-03-23T08:49:35.214Z,983
2023-03-23T08:54:54.348Z,983.2
2023-03-23T09:05:32.696Z,983.2
2023-03-23T09:16:11.029Z,983.2
2023-03-23T09:21:30.623Z,983.5
2023-03-23T09:32:09.005Z,983.5
2023-03-23T09:37:28.401Z,983.5
2023-03-23T09:42:47.938Z,983.6
2023-03-23T09:48:07.655Z,983.6
2023-03-23T09:58:46.513Z,983.5
2023-03-23T10:04:05.174Z,983.6
2023-03-23T10:14:43.017Z,983.7
2023-03-23T10:20:01.967Z,983.8
2023-03-23T10:30:39.513Z,983.9
2023-03-23T10:57:15.920Z,983.9
2023-03-23T11:02:35.513Z,983.9
2023-03-23T11:13:14.477Z,983.8
2023-03-23T11:18:33.603Z,983.9
2023-03-23T11:24:00.539Z,983.7
2023-03-23T11:29:12.047Z,983.9
2023-03-23T11:39:50.044Z,983.5
2023-03-23T11:45:09.232Z,983.6
2023-03-23T11:55:48.470Z,983.7
2023-03-23T12:01:08.025Z,983.8
2023-03-23T12:11:45.893Z,984
2023-03-23T12:22:23.724Z,984
2023-03-23T12:27:43.285Z,984
2023-03-23T12:38:22.594Z,984
2023-03-23T12:43:42.110Z,983.8
2023-03-23T13:04:58.115Z,983.5
2023-03-23T13:15:36.166Z,983.4
2023-03-23T13:20:54.899Z,983.4
2023-03-23T13:31:33.266Z,983.1
2023-03-23T13:36:52.262Z,983.2
2023-03-23T13:42:11.736Z,983.1
2023-03-23T13:47:31.291Z,982.9
2023-03-23T13:58:09.268Z,982.9
2023-03-23T14:03:28.492Z,982.9
2023-03-23T14:14:07.582Z,982.9
2023-03-23T14:19:26.540Z,982.9
2023-03-23T14:30:04.852Z,983
2023-03-23T14:46:01.882Z,983.1
2023-03-23T14:56:40.081Z,983.1
2023-03-23T15:02:02.331Z,983.1
2023-03-23T15:12:37.713Z,983
2023-03-23T15:17:56.625Z,983
2023-03-23T15:28:35.436Z,983
2023-03-23T15:39:13.588Z,983
2023-03-23T15:44:32.841Z,983
2023-03-23T15:55:11.858Z,982.8
2023-03-23T16:00:30.885Z,982.9
2023-03-23T16:11:08.663Z,982.9
2023-03-23T16:27:30.566Z,982.9
2023-03-23T16:32:50.143Z,982.9
2023-03-23T16:43:27.799Z,982.7
2023-03-23T16:54:05.494Z,982.8
2023-03-23T16:59:24.842Z,982.8
2023-03-23T17:10:03.223Z,982.7
2023-03-23T17:15:21.988Z,982.7
2023-03-23T17:26:00.583Z,982.7
2023-03-23T17:36:38.476Z,982.6
2023-03-23T17:41:57.981Z,982.6
2023-03-23T17:52:35.948Z,982.5
2023-03-23T17:57:55.394Z,982.5
2023-03-23T18:08:33.780Z,982.6
2023-03-23T18:13:52.651Z,982.5
2023-03-23T18:19:12.257Z,982.5
2023-03-23T18:24:31.995Z,982.5
2023-03-23T18:35:10.743Z,982.4
2023-03-23T18:40:29.671Z,982.5
2023-03-23T18:51:08.651Z,982.4
2023-03-23T18:56:28.031Z,982.4
2023-03-23T19:07:05.977Z,982.4
2023-03-23T19:17:45.405Z,982.4
2023-03-23T19:23:04.930Z,982.3
2023-03-23T19:33:42.991Z,982.3
2023-03-23T19:44:21.780Z,982.3
2023-03-23T19:55:08.712Z,982.3
2023-03-23T20:00:18.847Z,982.2
2023-03-23T20:10:57.139Z,982.1
2023-03-23T20:16:15.961Z,982
2023-03-23T20:26:55.569Z,982.1
2023-03-23T20:32:14.022Z,982.1
2023-03-23T20:37:32.930Z,982.2
2023-03-23T20:42:51.896Z,982.2
2023-03-23T20:53:29.567Z,982.2
2023-03-23T20:58:49.016Z,982.1
2023-03-23T21:09:27.114Z,982
2023-03-23T21:14:46.843Z,982
2023-03-23T21:25:33.856Z,981.8
2023-03-23T21:36:03.048Z,981.7
2023-03-23T21:41:21.960Z,981.6
2023-03-23T21:51:59.704Z,981.5
2023-03-23T21:57:19.113Z,981.4
2023-03-23T22:07:57.207Z,981.3
2023-03-23T22:18:35.674Z,981.3
2023-03-23T22:23:54.874Z,981.2
2023-03-23T22:34:32.941Z,981.2
2023-03-23T22:39:52.416Z,981.1
2023-03-23T22:50:30.436Z,980.8
2023-03-23T23:01:09.447Z,980.6
2023-03-23T23:06:28.207Z,980.6
2023-03-23T23:17:07.581Z,980.5
2023-03-23T23:22:27.048Z,980.5
2023-03-23T23:33:05.592Z,980.4
2023-03-23T23:38:25.132Z,980.4
2023-03-23T23:43:43.743Z,980.4
2023-03-23T23:49:03.157Z,980.3
2023-03-23T23:59:41.180Z,980.4
